createdAt,value
2018-08-25T00:00:25.422Z,71.66
2018-08-25T00:03:12.238Z,71.54
2018-08-25T00:05:45.952Z,71.26
2018-08-25T00:08:18.810Z,70.89
2018-08-25T00:10:51.941Z,70.39
2018-08-25T00:13:23.667Z,70.70
2018-08-25T00:15:59.396Z,70.53
2018-08-25T00:18:30.820Z,70.91
2018-08-25T00:21:04.563Z,71.41
2018-08-25T00:23:40.323Z,70.15
2018-08-25T00:26:22.153Z,71.21
2018-08-25T00:29:01.406Z,70.83
2018-08-25T00:31:34.443Z,70.63
2018-08-25T00:34:19.708Z,70.61
2018-08-25T00:36:57.073Z,69.14
2018-08-25T00:39:31.047Z,68.89
2018-08-25T00:42:04.216Z,68.09
2018-08-25T00:44:37.334Z,67.33
2018-08-25T00:47:08.862Z,68.33
2018-08-25T00:49:43.061Z,68.53
2018-08-25T00:52:15.082Z,69.61
2018-08-25T00:54:57.007Z,69.93
2018-08-25T00:57:29.790Z,71.34
2018-08-25T01:00:08.802Z,72.45
2018-08-25T01:02:44.653Z,74.15
2018-08-25T01:05:17.543Z,75.82
2018-08-25T01:07:51.040Z,72.76
2018-08-25T01:10:33.548Z,69.61
2018-08-25T01:13:06.029Z,65.19
2018-08-25T01:15:36.803Z,67.16
2018-08-25T01:18:12.954Z,65.01
2018-08-25T01:20:50.996Z,64.18
2018-08-25T01:23:22.385Z,65.96
2018-08-25T01:25:55.205Z,64.14
2018-08-25T01:28:28.360Z,65.66
2018-08-25T01:31:01.130Z,65.92
2018-08-25T01:33:33.313Z,63.37
2018-08-25T01:36:08.660Z,64.49
2018-08-25T01:38:41.024Z,64.93
2018-08-25T01:41:17.075Z,63.81
2018-08-25T01:43:50.973Z,62.51
2018-08-25T01:46:23.879Z,62.30
2018-08-25T01:48:59.600Z,63.61
2018-08-25T01:54:15.208Z,64.41
2018-08-25T01:56:48.104Z,64.09
2018-08-25T01:59:21.720Z,65.07
2018-08-25T02:01:58.176Z,62.18
2018-08-25T02:04:32.590Z,61.66
2018-08-25T02:07:06.940Z,64.05
2018-08-25T02:09:40.196Z,61.51
2018-08-25T02:12:13.469Z,63.85
2018-08-25T02:14:48.692Z,63.65
2018-08-25T02:17:26.465Z,64.66
2018-08-25T02:19:57.863Z,63.89
2018-08-25T02:22:39.559Z,63.30
2018-08-25T02:28:14.527Z,64.28
2018-08-25T02:30:48.021Z,63.48
2018-08-25T02:33:21.432Z,64.35
2018-08-25T02:35:55.844Z,66.05
2018-08-25T02:38:35.716Z,64.42
2018-08-25T02:41:16.978Z,66.04
2018-08-25T02:43:49.737Z,65.27
2018-08-25T02:46:23.393Z,64.54
2018-08-25T02:49:06.890Z,66.99
2018-08-25T02:52:01.417Z,65.68
2018-08-25T02:54:34.491Z,66.16
2018-08-25T02:57:09.004Z,64.38
2018-08-25T02:59:52.144Z,64.16
2018-08-25T03:02:24.340Z,63.85
2018-08-25T03:04:58.113Z,68.06
2018-08-25T03:07:35.940Z,67.14
2018-08-25T03:10:11.659Z,66.97
2018-08-25T03:12:42.923Z,65.65
2018-08-25T03:15:23.246Z,66.98
2018-08-25T03:17:55.380Z,67.51
2018-08-25T03:20:32.746Z,66.35
2018-08-25T03:23:04.690Z,66.87
2018-08-25T03:28:36.920Z,66.56
2018-08-25T03:31:08.459Z,65.55
2018-08-25T03:33:42.072Z,66.65
2018-08-25T03:36:12.384Z,66.63
2018-08-25T03:38:46.035Z,68.36
2018-08-25T03:41:21.516Z,67.90
2018-08-25T03:43:58.364Z,67.87
2018-08-25T03:46:28.926Z,68.97
2018-08-25T03:48:59.434Z,63.50
2018-08-25T03:51:31.831Z,66.47
2018-08-25T03:54:12.670Z,66.17
2018-08-25T03:56:50.473Z,64.98
2018-08-25T03:59:26.446Z,64.93
2018-08-25T04:01:57.617Z,66.53
2018-08-25T04:04:30.634Z,68.30
2018-08-25T04:07:02.291Z,67.70
2018-08-25T04:09:34.503Z,66.13
2018-08-25T04:12:06.782Z,67.38
2018-08-25T04:14:39.457Z,64.21
2018-08-25T04:17:12.045Z,66.97
2018-08-25T04:19:42.534Z,65.04
2018-08-25T04:22:18.393Z,64.58
2018-08-25T04:24:52.955Z,65.05
2018-08-25T04:27:43.317Z,67.40
2018-08-25T04:30:20.486Z,63.18
2018-08-25T04:32:52.288Z,63.82
2018-08-25T04:35:26.328Z,64.71
2018-08-25T04:37:57.567Z,66.49
2018-08-25T04:40:34.741Z,64.81
2018-08-25T04:43:05.313Z,63.40
2018-08-25T04:45:45.677Z,62.73
2018-08-25T04:48:19.338Z,62.38
2018-08-25T04:50:56.346Z,63.52
2018-08-25T04:53:33.413Z,65.79
2018-08-25T04:56:07.455Z,66.32
2018-08-25T04:58:38.280Z,65.90
2018-08-25T05:01:11.603Z,66.21
2018-08-25T05:03:44.177Z,65.51
2018-08-25T05:06:20.666Z,64.77
2018-08-25T05:08:57.505Z,65.02
2018-08-25T05:11:30.829Z,65.87
2018-08-25T05:14:03.754Z,63.76
2018-08-25T05:16:35.983Z,66.43
2018-08-25T05:19:11.106Z,65.04
2018-08-25T05:21:42.498Z,61.76
2018-08-25T05:24:19.618Z,61.49
2018-08-25T05:26:51.270Z,62.32
2018-08-25T05:29:24.492Z,63.44
2018-08-25T05:31:58.525Z,62.33
2018-08-25T05:34:34.191Z,59.94
2018-08-25T05:37:08.059Z,60.42
2018-08-25T05:39:41.893Z,60.42
2018-08-25T05:42:18.516Z,60.26
2018-08-25T05:44:54.661Z,60.17
2018-08-25T05:47:33.161Z,59.68
2018-08-25T05:50:07.452Z,59.78
2018-08-25T05:52:38.306Z,58.14
2018-08-25T05:55:15.604Z,57.85
2018-08-25T05:57:54.305Z,60.13
2018-08-25T06:00:32.919Z,61.72
2018-08-25T06:03:07.251Z,60.64
2018-08-25T06:05:43.711Z,62.08
2018-08-25T06:08:20.146Z,58.91
2018-08-25T06:10:53.591Z,60.11
2018-08-25T06:13:32.743Z,57.15
2018-08-25T06:16:07.975Z,56.96
2018-08-25T06:18:40.922Z,58.31
2018-08-25T06:21:15.059Z,56.71
2018-08-25T06:23:46.810Z,55.24
2018-08-25T06:26:21.714Z,55.39
2018-08-25T06:28:52.727Z,56.23
2018-08-25T06:31:24.280Z,55.47
2018-08-25T06:33:59.449Z,57.65
2018-08-25T06:36:45.798Z,54.19
2018-08-25T06:39:16.451Z,55.85
2018-08-25T06:41:52.456Z,57.23
2018-08-25T06:44:31.623Z,57.65
2018-08-25T06:47:05.373Z,56.11
2018-08-25T06:49:39.630Z,56.57
2018-08-25T06:52:19.970Z,56.84
2018-08-25T06:54:51.555Z,54.08
2018-08-25T06:57:23.190Z,54.20
2018-08-25T07:00:03.364Z,54.96
2018-08-25T07:02:37.563Z,53.39
2018-08-25T07:05:13.678Z,54.83
2018-08-25T07:07:46.018Z,57.04
2018-08-25T07:10:20.075Z,56.14
2018-08-25T07:12:54.426Z,54.66
2018-08-25T07:15:31.050Z,54.75
2018-08-25T07:18:07.885Z,53.52
2018-08-25T07:20:45.367Z,52.67
2018-08-25T07:23:18.669Z,51.69
2018-08-25T07:25:56.326Z,52.35
2018-08-25T07:28:29.764Z,53.51
2018-08-25T07:31:08.737Z,52.46
2018-08-25T07:36:33.408Z,50.30
2018-08-25T07:39:05.681Z,50.19
2018-08-25T07:41:40.702Z,50.28
2018-08-25T07:44:11.294Z,50.05
2018-08-25T07:46:47.262Z,49.97
2018-08-25T07:49:20.673Z,50.34
2018-08-25T07:51:54.860Z,50.16
2018-08-25T07:54:27.283Z,48.13
2018-08-25T07:57:06.173Z,48.25
2018-08-25T07:59:40.424Z,47.70
2018-08-25T08:02:16.055Z,48.81
2018-08-25T08:04:56.635Z,49.06
2018-08-25T08:07:28.090Z,48.58
2018-08-25T08:10:04.148Z,48.94
2018-08-25T08:12:37.441Z,48.21
2018-08-25T08:15:12.181Z,47.16
2018-08-25T08:17:47.209Z,46.88
2018-08-25T08:20:24.162Z,47.16
2018-08-25T08:25:38.429Z,46.30
2018-08-25T08:28:18.460Z,46.21
2018-08-25T08:30:50.015Z,45.43
2018-08-25T08:33:20.910Z,47.69
2018-08-25T08:35:54.628Z,47.01
2018-08-25T08:38:29.477Z,48.32
2018-08-25T08:41:00.101Z,46.76
2018-08-25T08:43:35.874Z,47.01
2018-08-25T08:46:12.938Z,47.37
2018-08-25T08:48:52.107Z,47.31
2018-08-25T08:51:26.581Z,47.10
2018-08-25T08:53:59.867Z,48.33
2018-08-25T08:56:37.102Z,48.07
2018-08-25T08:59:12.711Z,46.04
2018-08-25T09:01:46.232Z,47.09
2018-08-25T09:04:21.409Z,46.54
2018-08-25T09:06:53.036Z,47.49
2018-08-25T09:12:29.151Z,48.63
2018-08-25T09:15:05.249Z,48.14
2018-08-25T09:17:40.792Z,47.56
2018-08-25T09:20:16.001Z,47.24
2018-08-25T09:22:52.256Z,47.77
2018-08-25T09:25:35.726Z,48.45
2018-08-25T09:28:10.847Z,48.43
2018-08-25T09:30:45.390Z,48.39
2018-08-25T09:33:18.516Z,49.13
2018-08-25T09:35:51.002Z,48.76
2018-08-25T09:38:23.002Z,47.71
2018-08-25T09:40:55.373Z,46.80
2018-08-25T09:43:29.000Z,47.27
2018-08-25T09:46:05.992Z,46.48
2018-08-25T09:48:38.974Z,47.88
2018-08-25T09:51:12.372Z,47.12
2018-08-25T09:53:47.397Z,49.06
2018-08-25T09:56:19.461Z,47.60
2018-08-25T09:58:55.613Z,45.70
2018-08-25T10:01:36.475Z,46.50
2018-08-25T10:04:09.864Z,48.43
2018-08-25T10:06:40.056Z,49.39
2018-08-25T10:09:16.121Z,48.02
2018-08-25T10:11:48.401Z,49.30
2018-08-25T10:14:22.065Z,48.75
2018-08-25T10:16:53.341Z,48.39
2018-08-25T10:19:26.850Z,49.14
2018-08-25T10:22:04.181Z,49.20
2018-08-25T10:24:41.208Z,49.32
2018-08-25T10:27:15.167Z,50.07
2018-08-25T10:29:49.320Z,49.58
2018-08-25T10:32:27.334Z,48.87
2018-08-25T10:35:03.863Z,50.70
2018-08-25T10:37:36.827Z,51.10
2018-08-25T10:40:07.822Z,51.97
2018-08-25T10:42:41.206Z,54.43
2018-08-25T10:45:17.807Z,51.07
2018-08-25T10:47:50.558Z,53.57
2018-08-25T10:50:20.960Z,51.43
2018-08-25T10:52:56.506Z,49.84
2018-08-25T10:55:31.719Z,50.84
2018-08-25T10:58:07.249Z,52.72
2018-08-25T11:00:45.770Z,52.02
2018-08-25T11:03:24.978Z,51.13
2018-08-25T11:06:01.930Z,52.33
2018-08-25T11:08:34.354Z,50.94
2018-08-25T11:11:05.943Z,50.55
2018-08-25T11:13:40.003Z,51.59
2018-08-25T11:16:14.374Z,50.82
2018-08-25T11:18:45.759Z,52.00
2018-08-25T11:21:16.419Z,50.60
2018-08-25T11:23:54.484Z,53.07
2018-08-25T11:26:34.858Z,53.02
2018-08-25T11:29:06.117Z,53.99
2018-08-25T11:31:40.862Z,52.92
2018-08-25T11:34:13.233Z,52.48
2018-08-25T11:36:49.537Z,52.61
2018-08-25T11:39:24.906Z,52.04
2018-08-25T11:42:00.224Z,51.99
2018-08-25T11:44:31.337Z,51.44
2018-08-25T11:47:14.848Z,53.25
2018-08-25T11:49:52.307Z,53.24
2018-08-25T11:52:26.115Z,52.04
2018-08-25T11:54:59.478Z,52.30
2018-08-25T11:57:33.761Z,52.29
2018-08-25T12:00:09.927Z,51.37
2018-08-25T12:02:40.757Z,51.62
2018-08-25T12:05:13.203Z,52.39
2018-08-25T12:07:46.870Z,52.44
2018-08-25T12:10:26.383Z,52.50
2018-08-25T12:12:59.689Z,52.30
2018-08-25T12:15:39.539Z,52.55
2018-08-25T12:18:14.055Z,50.23
2018-08-25T12:20:46.198Z,51.06
2018-08-25T12:23:22.143Z,50.44
2018-08-25T12:25:58.186Z,49.41
2018-08-25T12:28:38.140Z,50.92
2018-08-25T12:31:17.689Z,49.22
2018-08-25T12:33:54.295Z,49.26
2018-08-25T12:36:28.693Z,50.35
2018-08-25T12:38:59.848Z,49.47
2018-08-25T12:41:33.251Z,49.25
2018-08-25T12:44:08.388Z,47.25
2018-08-25T12:46:41.844Z,45.21
2018-08-25T12:52:09.506Z,40.78
2018-08-25T12:54:43.231Z,40.05
2018-08-25T12:57:19.089Z,37.83
2018-08-25T12:59:52.866Z,36.88
2018-08-25T13:02:24.313Z,39.37
2018-08-25T13:04:59.590Z,37.16
2018-08-25T13:07:34.957Z,36.77
2018-08-25T13:10:06.817Z,37.51
2018-08-25T13:15:25.815Z,37.48
2018-08-25T13:17:57.976Z,35.30
2018-08-25T13:23:10.171Z,36.29
2018-08-25T13:25:46.277Z,35.70
2018-08-25T13:28:25.502Z,36.75
2018-08-25T13:30:57.987Z,34.95
2018-08-25T13:33:34.188Z,35.52
2018-08-25T13:36:07.642Z,36.62
2018-08-25T13:38:42.975Z,35.89
2018-08-25T13:41:14.740Z,36.01
2018-08-25T13:43:50.407Z,35.49
2018-08-25T13:46:24.973Z,35.00
2018-08-25T13:48:56.374Z,35.08
2018-08-25T13:51:27.879Z,36.80
2018-08-25T13:54:02.749Z,36.68
2018-08-25T13:56:34.293Z,34.86
2018-08-25T13:59:07.398Z,35.03
2018-08-25T14:11:20.454Z,35.08
2018-08-25T14:13:56.956Z,34.28
2018-08-25T14:16:34.451Z,36.68
2018-08-25T14:19:06.787Z,34.72
2018-08-25T14:21:40.264Z,34.79
2018-08-25T14:24:13.955Z,36.55
2018-08-25T14:26:45.810Z,33.35
2018-08-25T14:29:17.426Z,33.62
2018-08-25T14:31:50.981Z,33.02
2018-08-25T14:34:23.601Z,33.02
2018-08-25T14:36:54.061Z,32.54
2018-08-25T14:39:30.865Z,32.86
2018-08-25T14:43:12.623Z,32.54
2018-08-25T14:45:53.236Z,29.84
2018-08-25T14:48:23.671Z,26.60
2018-08-25T14:50:57.933Z,28.54
2018-08-25T14:53:29.061Z,26.83
2018-08-25T14:56:02.868Z,28.56
2018-08-25T14:58:37.393Z,28.01
2018-08-25T15:01:13.756Z,27.26
2018-08-25T15:03:48.008Z,27.54
2018-08-25T15:06:24.761Z,27.75
2018-08-25T15:08:56.165Z,27.73
2018-08-25T15:11:32.013Z,29.10
2018-08-25T15:14:07.384Z,28.59
2018-08-25T15:16:40.390Z,25.49
2018-08-25T15:19:19.401Z,27.54
2018-08-25T15:21:48.956Z,25.79
2018-08-25T15:24:18.534Z,26.47
2018-08-25T15:26:52.888Z,28.48
2018-08-25T15:29:27.992Z,29.06
2018-08-25T15:32:01.784Z,29.03
2018-08-25T15:34:39.870Z,30.39
2018-08-25T15:37:11.558Z,29.54
2018-08-25T15:39:47.848Z,30.81
2018-08-25T15:42:21.853Z,30.47
2018-08-25T15:44:54.603Z,30.06
2018-08-25T15:47:32.434Z,30.96
2018-08-25T15:50:04.162Z,33.84
2018-08-25T15:52:40.123Z,34.89
2018-08-25T15:55:17.741Z,33.52
2018-08-25T15:57:50.928Z,34.90
2018-08-25T16:00:25.864Z,36.55
2018-08-25T16:03:01.294Z,35.98
2018-08-25T16:05:41.956Z,36.98
2018-08-25T16:08:14.181Z,36.53
2018-08-25T16:10:46.362Z,35.85
2018-08-25T16:13:20.217Z,37.94
2018-08-25T16:15:52.036Z,38.13
2018-08-25T16:18:25.057Z,39.73
2018-08-25T16:21:02.305Z,40.58
2018-08-25T16:23:33.649Z,40.63
2018-08-25T16:26:08.668Z,42.67
2018-08-25T16:28:41.251Z,42.70
2018-08-25T16:31:11.452Z,44.35
2018-08-25T16:33:45.945Z,43.88
2018-08-25T16:36:19.664Z,44.85
2018-08-25T16:38:56.143Z,45.47
2018-08-25T16:41:28.910Z,46.67
2018-08-25T16:44:01.492Z,48.22
2018-08-25T16:46:35.743Z,50.08
2018-08-25T16:49:12.731Z,49.88
2018-08-25T16:51:51.788Z,50.83
2018-08-25T16:54:32.811Z,52.26
2018-08-25T16:57:03.928Z,52.36
2018-08-25T16:59:35.684Z,52.69
2018-08-25T17:02:08.719Z,53.38
2018-08-25T17:04:41.008Z,53.65
2018-08-25T17:07:15.863Z,54.21
2018-08-25T17:09:48.191Z,54.27
2018-08-25T17:12:20.340Z,53.91
2018-08-25T17:15:10.998Z,54.26
2018-08-25T17:17:42.108Z,54.10
2018-08-25T17:20:16.206Z,54.65
2018-08-25T17:22:47.719Z,54.26
2018-08-25T17:25:20.158Z,54.66
2018-08-25T17:27:50.396Z,55.21
2018-08-25T17:30:23.868Z,54.55
2018-08-25T17:32:57.129Z,54.95
2018-08-25T17:35:30.010Z,55.36
2018-08-25T17:38:03.099Z,55.57
2018-08-25T17:40:41.227Z,55.64
2018-08-25T17:43:16.253Z,56.18
2018-08-25T17:45:47.720Z,56.10
2018-08-25T17:48:20.632Z,56.66
2018-08-25T17:50:51.974Z,56.66
2018-08-25T17:53:27.907Z,57.13
2018-08-25T17:56:01.887Z,57.23
2018-08-25T17:58:36.766Z,57.90
2018-08-25T18:01:18.891Z,57.13
2018-08-25T18:03:52.409Z,57.31
2018-08-25T18:06:23.781Z,57.49
2018-08-25T18:08:55.392Z,57.40
2018-08-25T18:11:31.899Z,57.75
2018-08-25T18:14:13.478Z,57.88
2018-08-25T18:16:48.310Z,57.68
2018-08-25T18:19:18.543Z,57.87
2018-08-25T18:21:54.788Z,58.46
2018-08-25T18:24:27.606Z,58.74
2018-08-25T18:27:02.560Z,58.86
2018-08-25T18:29:36.348Z,59.24
2018-08-25T18:32:08.099Z,59.69
2018-08-25T18:34:44.786Z,59.26
2018-08-25T18:37:19.896Z,58.96
2018-08-25T18:39:52.436Z,58.97
2018-08-25T18:42:25.370Z,59.06
2018-08-25T18:44:56.827Z,58.95
2018-08-25T18:54:29.256Z,59.78
2018-08-25T18:57:01.409Z,59.22
2018-08-25T18:59:33.987Z,59.44
2018-08-25T19:02:05.051Z,58.98
2018-08-25T19:04:38.219Z,58.71
2018-08-25T19:07:10.432Z,58.72
2018-08-25T19:09:42.746Z,59.22
2018-08-25T19:12:13.235Z,58.76
2018-08-25T19:14:44.607Z,58.35
2018-08-25T19:17:15.917Z,59.20
2018-08-25T19:19:51.149Z,59.34
2018-08-25T19:22:22.896Z,58.72
2018-08-25T19:24:54.537Z,58.68
2018-08-25T19:27:31.583Z,59.08
2018-08-25T19:32:42.326Z,58.42
2018-08-25T19:35:12.807Z,58.54
2018-08-25T19:37:44.209Z,58.22
2018-08-25T19:40:18.160Z,58.45
2018-08-25T19:42:50.774Z,58.34
2018-08-25T19:45:24.433Z,58.85
2018-08-25T19:47:56.143Z,58.68
2018-08-25T19:50:30.374Z,58.19
2018-08-25T19:53:01.027Z,58.51
2018-08-25T19:55:34.698Z,59.38
2018-08-25T19:58:05.812Z,59.28
2018-08-25T20:00:37.151Z,59.01
2018-08-25T20:03:10.174Z,59.04
2018-08-25T20:05:41.447Z,58.67
2018-08-25T20:08:13.831Z,58.53
2018-08-25T20:10:47.932Z,58.53
2018-08-25T20:13:18.468Z,57.35
2018-08-25T20:15:49.245Z,59.66
2018-08-25T20:18:19.032Z,61.32
2018-08-25T20:20:48.653Z,61.45
2018-08-25T20:23:22.806Z,61.44
2018-08-25T20:25:53.333Z,62.65
2018-08-25T20:28:25.134Z,62.28
2018-08-25T20:30:58.196Z,62.05
2018-08-25T20:33:34.210Z,62.50
2018-08-25T20:36:04.723Z,62.56
2018-08-25T20:38:42.514Z,63.06
2018-08-25T20:41:12.122Z,62.57
2018-08-25T20:43:46.824Z,64.22
2018-08-25T20:46:23.553Z,65.37
2018-08-25T20:48:55.783Z,64.84
2018-08-25T20:51:28.427Z,66.50
2018-08-25T20:54:00.453Z,67.89
2018-08-25T20:56:34.307Z,68.78
2018-08-25T20:59:08.119Z,69.43
2018-08-25T21:01:40.731Z,69.15
2018-08-25T21:04:11.297Z,67.44
2018-08-25T21:06:42.819Z,67.10
2018-08-25T21:09:18.381Z,67.15
2018-08-25T21:11:50.238Z,65.48
2018-08-25T21:14:24.461Z,65.13
2018-08-25T21:16:59.121Z,64.67
2018-08-25T21:19:33.811Z,65.43
2018-08-25T21:22:06.934Z,65.34
2018-08-25T21:24:43.424Z,65.27
2018-08-25T21:27:14.628Z,64.85
2018-08-25T21:29:49.381Z,64.71
2018-08-25T21:32:21.609Z,63.86
2018-08-25T21:34:53.808Z,64.83
2018-08-25T21:37:26.748Z,65.10
2018-08-25T21:40:00.824Z,64.42
2018-08-25T21:42:31.333Z,64.56
2018-08-25T21:45:04.744Z,63.14
2018-08-25T21:47:35.183Z,63.85
2018-08-25T21:50:04.871Z,64.74
2018-08-25T21:52:34.990Z,65.11
2018-08-25T21:55:08.231Z,66.57
2018-08-25T21:57:38.647Z,65.87
2018-08-25T22:00:09.699Z,66.52
2018-08-25T22:02:43.271Z,65.94
2018-08-25T22:05:24.567Z,66.96
2018-08-25T22:07:57.371Z,66.64
2018-08-25T22:10:31.349Z,65.73
2018-08-25T22:13:01.246Z,65.50
2018-08-25T22:15:36.987Z,66.11
2018-08-25T22:18:11.916Z,66.36
2018-08-25T22:20:58.515Z,66.55
2018-08-25T22:23:31.144Z,65.92
2018-08-25T22:26:02.371Z,65.47
2018-08-25T22:28:34.093Z,65.26
2018-08-25T22:31:06.183Z,64.84
2018-08-25T22:33:40.829Z,64.61
2018-08-25T22:36:11.809Z,65.21
2018-08-25T22:38:42.785Z,65.02
2018-08-25T22:41:13.732Z,64.09
2018-08-25T22:43:44.912Z,65.83
2018-08-25T22:46:19.006Z,65.04
2018-08-25T22:48:52.022Z,63.91
2018-08-25T22:51:22.523Z,62.50
2018-08-25T22:53:55.002Z,62.38
2018-08-25T22:56:32.135Z,62.21
2018-08-25T22:59:01.663Z,61.65
2018-08-25T23:01:34.970Z,61.53
2018-08-25T23:04:05.982Z,61.72
2018-08-25T23:06:50.253Z,62.10
2018-08-25T23:09:21.208Z,61.65
2018-08-25T23:11:52.698Z,62.25
2018-08-25T23:14:26.747Z,61.59
2018-08-25T23:16:59.432Z,61.41
2018-08-25T23:19:35.273Z,60.48
2018-08-25T23:22:06.844Z,61.96
2018-08-25T23:24:41.430Z,61.97
2018-08-25T23:27:12.824Z,61.90
2018-08-25T23:29:44.813Z,63.67
2018-08-25T23:32:19.974Z,64.16
2018-08-25T23:34:52.255Z,66.43
2018-08-25T23:37:24.923Z,68.31
2018-08-25T23:40:00.113Z,68.63
2018-08-25T23:42:33.521Z,68.05
2018-08-25T23:45:05.806Z,68.05
2018-08-25T23:47:39.457Z,69.17
2018-08-25T23:50:12.232Z,68.47
2018-08-25T23:52:41.853Z,68.93
2018-08-25T23:55:17.483Z,68.63
2018-08-25T23:57:47.743Z,67.27
